sensor_id;sensor_type;location;lat;lon;timestamp;pressure;altitude;pressure_sealevel;temperature;humidity
2563;BME280;1291;51.420;6.970;2023-02-22T00:01:13;99901.88;;;39.83;7.24
2563;BME280;1291;51.420;6.970;2023-02-22T00:03:57;99899.59;;;38.26;8.70
2563;BME280;1291;51.420;6.970;2023-02-22T00:06:23;99907.59;;;38.95;8.30
2563;BME280;1291;51.420;6.970;2023-02-22T00:08:49;99888.94;;;37.84;8.98
2563;BME280;1291;51.420;6.970;2023-02-22T00:11:16;99895.88;;;38.85;8.63
2563;BME280;1291;51.420;6.970;2023-02-22T00:13:41;99900.06;;;38.99;8.25
2563;BME280;1291;51.420;6.970;2023-02-22T00:16:12;99903.19;;;35.27;10.84
2563;BME280;1291;51.420;6.970;2023-02-22T00:18:37;99896.78;;;37.04;9.94
2563;BME280;1291;51.420;6.970;2023-02-22T00:21:03;99894.03;;;38.17;9.01
2563;BME280;1291;51.420;6.970;2023-02-22T00:23:30;99888.97;;;38.03;9.51
2563;BME280;1291;51.420;6.970;2023-02-22T00:25:57;99900.72;;;34.53;12.68
2563;BME280;1291;51.420;6.970;2023-02-22T00:28:22;99888.06;;;37.83;9.47
2563;BME280;1291;51.420;6.970;2023-02-22T00:30:51;99897.31;;;40.29;8.11
2563;BME280;1291;51.420;6.970;2023-02-22T00:33:16;99881.88;;;38.90;8.70
2563;BME280;1291;51.420;6.970;2023-02-22T00:35:43;99888.19;;;38.71;8.75
2563;BME280;1291;51.420;6.970;2023-02-22T00:38:16;99882.44;;;39.88;7.96
2563;BME280;1291;51.420;6.970;2023-02-22T00:40:42;99880.75;;;38.34;8.98
2563;BME280;1291;51.420;6.970;2023-02-22T00:43:07;99890.50;;;39.42;8.41
2563;BME280;1291;51.420;6.970;2023-02-22T00:45:34;99885.16;;;37.34;9.80
2563;BME280;1291;51.420;6.970;2023-02-22T00:48:00;99876.31;;;37.11;10.01
2563;BME280;1291;51.420;6.970;2023-02-22T00:50:28;99876.50;;;38.61;8.96
2563;BME280;1291;51.420;6.970;2023-02-22T00:52:55;99869.91;;;38.63;9.02
2563;BME280;1291;51.420;6.970;2023-02-22T00:55:30;99870.97;;;39.19;8.82
2563;BME280;1291;51.420;6.970;2023-02-22T00:57:56;99870.66;;;39.22;8.92
2563;BME280;1291;51.420;6.970;2023-02-22T01:00:26;99862.53;;;37.45;9.63
2563;BME280;1291;51.420;6.970;2023-02-22T01:02:52;99870.59;;;38.16;9.01
2563;BME280;1291;51.420;6.970;2023-02-22T01:05:20;99864.16;;;39.15;8.79
2563;BME280;1291;51.420;6.970;2023-02-22T01:07:47;99854.75;;;38.80;8.70
2563;BME280;1291;51.420;6.970;2023-02-22T01:10:13;99863.47;;;38.84;9.10
2563;BME280;1291;51.420;6.970;2023-02-22T01:12:38;99859.06;;;38.63;9.14
2563;BME280;1291;51.420;6.970;2023-02-22T01:15:05;99863.22;;;37.68;9.63
2563;BME280;1291;51.420;6.970;2023-02-22T01:17:34;99856.69;;;39.82;8.43
2563;BME280;1291;51.420;6.970;2023-02-22T01:20:00;99862.31;;;37.58;9.62
2563;BME280;1291;51.420;6.970;2023-02-22T01:22:25;99855.28;;;37.55;9.91
2563;BME280;1291;51.420;6.970;2023-02-22T01:24:52;99856.47;;;38.81;9.16
2563;BME280;1291;51.420;6.970;2023-02-22T01:27:19;99847.56;;;37.72;9.53
2563;BME280;1291;51.420;6.970;2023-02-22T01:29:47;99848.78;;;38.47;9.40
2563;BME280;1291;51.420;6.970;2023-02-22T01:32:14;99846.19;;;40.51;8.12
2563;BME280;1291;51.420;6.970;2023-02-22T01:34:39;99837.56;;;40.20;7.95
2563;BME280;1291;51.420;6.970;2023-02-22T01:37:08;99841.22;;;39.83;8.03
2563;BME280;1291;51.420;6.970;2023-02-22T01:39:34;99835.94;;;40.45;8.09
2563;BME280;1291;51.420;6.970;2023-02-22T01:41:59;99838.38;;;38.13;9.08
2563;BME280;1291;51.420;6.970;2023-02-22T01:46:49;99839.31;;;37.43;9.72
2563;BME280;1291;51.420;6.970;2023-02-22T01:49:15;99834.44;;;37.87;9.47
2563;BME280;1291;51.420;6.970;2023-02-22T01:51:44;99828.78;;;37.59;9.62
2563;BME280;1291;51.420;6.970;2023-02-22T01:54:25;99829.53;;;38.21;9.11
2563;BME280;1291;51.420;6.970;2023-02-22T01:57:27;99838.00;;;38.94;9.00
2563;BME280;1291;51.420;6.970;2023-02-22T01:59:58;99827.66;;;38.12;9.23
2563;BME280;1291;51.420;6.970;2023-02-22T02:02:25;99826.84;;;39.17;8.81
2563;BME280;1291;51.420;6.970;2023-02-22T02:04:55;99822.31;;;39.63;7.84
2563;BME280;1291;51.420;6.970;2023-02-22T02:07:22;99820.09;;;39.21;8.49
2563;BME280;1291;51.420;6.970;2023-02-22T02:09:53;99825.91;;;38.79;8.78
2563;BME280;1291;51.420;6.970;2023-02-22T02:12:22;99817.56;;;37.73;9.57
2563;BME280;1291;51.420;6.970;2023-02-22T02:14:48;99820.13;;;39.49;8.42
2563;BME280;1291;51.420;6.970;2023-02-22T02:17:16;99809.41;;;38.53;8.72
2563;BME280;1291;51.420;6.970;2023-02-22T02:25:16;99796.53;;;37.36;9.78
2563;BME280;1291;51.420;6.970;2023-02-22T02:27:59;99796.41;;;39.41;8.42
2563;BME280;1291;51.420;6.970;2023-02-22T02:39:04;99794.53;;;37.08;9.92
2563;BME280;1291;51.420;6.970;2023-02-22T02:41:41;99791.34;;;37.64;9.05
2563;BME280;1291;51.420;6.970;2023-02-22T02:44:16;99788.41;;;37.36;9.88
2563;BME280;1291;51.420;6.970;2023-02-22T02:46:55;99780.09;;;37.28;9.40
2563;BME280;1291;51.420;6.970;2023-02-22T02:51:53;99782.41;;;37.33;9.68
2563;BME280;1291;51.420;6.970;2023-02-22T02:54:21;99780.22;;;37.77;9.30
2563;BME280;1291;51.420;6.970;2023-02-22T02:56:47;99774.59;;;39.79;7.90
2563;BME280;1291;51.420;6.970;2023-02-22T02:59:23;99766.19;;;37.52;9.25
2563;BME280;1291;51.420;6.970;2023-02-22T03:04:40;99763.75;;;38.19;8.63
2563;BME280;1291;51.420;6.970;2023-02-22T03:18:07;99748.00;;;37.74;9.01
2563;BME280;1291;51.420;6.970;2023-02-22T03:20:45;99735.97;;;37.47;9.36
2563;BME280;1291;51.420;6.970;2023-02-22T03:23:28;99736.19;;;36.42;10.15
2563;BME280;1291;51.420;6.970;2023-02-22T03:26:02;99732.03;;;37.90;9.03
2563;BME280;1291;51.420;6.970;2023-02-22T03:28:29;99736.28;;;37.73;9.22
2563;BME280;1291;51.420;6.970;2023-02-22T03:31:07;99736.28;;;38.42;8.50
2563;BME280;1291;51.420;6.970;2023-02-22T03:33:55;99732.03;;;38.00;9.01
2563;BME280;1291;51.420;6.970;2023-02-22T03:36:27;99732.56;;;38.62;8.37
2563;BME280;1291;51.420;6.970;2023-02-22T03:38:56;99740.22;;;38.76;8.31
2563;BME280;1291;51.420;6.970;2023-02-22T03:41:24;99731.94;;;37.32;8.96
2563;BME280;1291;51.420;6.970;2023-02-22T03:43:56;99733.19;;;37.68;9.38
2563;BME280;1291;51.420;6.970;2023-02-22T03:46:22;99730.06;;;37.13;9.67
2563;BME280;1291;51.420;6.970;2023-02-22T03:51:34;99732.28;;;39.30;8.00
2563;BME280;1291;51.420;6.970;2023-02-22T03:54:01;99733.84;;;37.10;9.39
2563;BME280;1291;51.420;6.970;2023-02-22T03:56:30;99733.84;;;38.68;8.23
2563;BME280;1291;51.420;6.970;2023-02-22T03:59:05;99734.03;;;38.37;8.88
2563;BME280;1291;51.420;6.970;2023-02-22T04:01:32;99736.31;;;38.89;8.26
2563;BME280;1291;51.420;6.970;2023-02-22T04:03:57;99730.50;;;39.39;7.94
2563;BME280;1291;51.420;6.970;2023-02-22T04:06:23;99734.31;;;39.56;7.77
2563;BME280;1291;51.420;6.970;2023-02-22T04:08:48;99736.75;;;39.22;8.12
2563;BME280;1291;51.420;6.970;2023-02-22T04:11:13;99739.63;;;38.83;8.20
2563;BME280;1291;51.420;6.970;2023-02-22T04:13:42;99735.59;;;37.91;8.84
2563;BME280;1291;51.420;6.970;2023-02-22T04:16:07;99742.84;;;38.59;8.07
2563;BME280;1291;51.420;6.970;2023-02-22T04:18:32;99743.59;;;38.02;8.70
2563;BME280;1291;51.420;6.970;2023-02-22T04:20:58;99740.69;;;38.72;8.22
2563;BME280;1291;51.420;6.970;2023-02-22T04:23:23;99744.84;;;39.04;7.89
2563;BME280;1291;51.420;6.970;2023-02-22T04:25:48;99742.28;;;38.55;8.02
2563;BME280;1291;51.420;6.970;2023-02-22T04:28:14;99744.50;;;37.43;9.20
2563;BME280;1291;51.420;6.970;2023-02-22T04:30:39;99747.16;;;38.32;8.26
2563;BME280;1291;51.420;6.970;2023-02-22T04:33:04;99735.94;;;38.07;8.52
2563;BME280;1291;51.420;6.970;2023-02-22T04:35:30;99734.25;;;37.36;8.74
2563;BME280;1291;51.420;6.970;2023-02-22T04:37:58;99732.03;;;37.71;8.68
2563;BME280;1291;51.420;6.970;2023-02-22T04:40:23;99736.06;;;38.15;8.41
2563;BME280;1291;51.420;6.970;2023-02-22T04:42:49;99735.03;;;37.17;8.94
2563;BME280;1291;51.420;6.970;2023-02-22T04:45:14;99729.44;;;38.37;7.96
2563;BME280;1291;51.420;6.970;2023-02-22T04:47:39;99736.41;;;38.50;8.01
2563;BME280;1291;51.420;6.970;2023-02-22T04:50:06;99727.78;;;38.27;7.99
2563;BME280;1291;51.420;6.970;2023-02-22T04:52:32;99723.88;;;38.59;7.80
2563;BME280;1291;51.420;6.970;2023-02-22T04:54:57;99717.34;;;37.93;8.40
2563;BME280;1291;51.420;6.970;2023-02-22T04:57:23;99720.34;;;33.79;11.16
2563;BME280;1291;51.420;6.970;2023-02-22T04:59:52;99718.81;;;37.27;8.83
2563;BME280;1291;51.420;6.970;2023-02-22T05:02:17;99716.63;;;38.20;7.98
2563;BME280;1291;51.420;6.970;2023-02-22T05:04:43;99709.91;;;38.81;7.71
2563;BME280;1291;51.420;6.970;2023-02-22T05:07:09;99707.38;;;37.84;8.48
2563;BME280;1291;51.420;6.970;2023-02-22T05:09:34;99700.09;;;37.84;8.45
2563;BME280;1291;51.420;6.970;2023-02-22T05:11:59;99693.50;;;36.03;8.72
2563;BME280;1291;51.420;6.970;2023-02-22T05:14:25;99691.13;;;36.52;8.98
2563;BME280;1291;51.420;6.970;2023-02-22T05:16:54;99685.47;;;36.13;9.29
2563;BME280;1291;51.420;6.970;2023-02-22T05:19:20;99687.13;;;37.88;8.06
2563;BME280;1291;51.420;6.970;2023-02-22T05:21:45;99683.84;;;37.74;8.06
2563;BME280;1291;51.420;6.970;2023-02-22T05:24:11;99692.94;;;35.01;9.63
2563;BME280;1291;51.420;6.970;2023-02-22T05:26:36;99689.53;;;35.87;9.29
2563;BME280;1291;51.420;6.970;2023-02-22T05:29:02;99679.25;;;38.04;8.22
2563;BME280;1291;51.420;6.970;2023-02-22T05:31:27;99673.25;;;36.92;8.58
2563;BME280;1291;51.420;6.970;2023-02-22T05:33:52;99681.16;;;36.74;9.07
2563;BME280;1291;51.420;6.970;2023-02-22T05:36:18;99669.22;;;36.76;8.91
2563;BME280;1291;51.420;6.970;2023-02-22T05:38:43;99665.09;;;36.30;9.11
2563;BME280;1291;51.420;6.970;2023-02-22T05:41:10;99661.66;;;36.70;8.69
2563;BME280;1291;51.420;6.970;2023-02-22T05:43:39;99662.03;;;35.17;9.72
2563;BME280;1291;51.420;6.970;2023-02-22T05:46:08;99654.56;;;37.29;8.66
2563;BME280;1291;51.420;6.970;2023-02-22T05:48:33;99657.31;;;38.07;8.25
2563;BME280;1291;51.420;6.970;2023-02-22T05:50:58;99651.47;;;36.93;8.86
2563;BME280;1291;51.420;6.970;2023-02-22T05:53:24;99652.94;;;35.18;9.61
2563;BME280;1291;51.420;6.970;2023-02-22T05:55:50;99658.16;;;37.69;8.53
2563;BME280;1291;51.420;6.970;2023-02-22T05:58:16;99655.81;;;36.75;9.26
2563;BME280;1291;51.420;6.970;2023-02-22T06:00:41;99656.47;;;37.68;8.82
2563;BME280;1291;51.420;6.970;2023-02-22T06:03:07;99656.81;;;35.36;9.74
2563;BME280;1291;51.420;6.970;2023-02-22T06:05:36;99654.19;;;38.49;7.95
2563;BME280;1291;51.420;6.970;2023-02-22T06:08:03;99651.91;;;38.45;8.16
2563;BME280;1291;51.420;6.970;2023-02-22T06:10:33;99658.72;;;39.42;7.46
2563;BME280;1291;51.420;6.970;2023-02-22T06:12:59;99657.72;;;38.97;7.94
2563;BME280;1291;51.420;6.970;2023-02-22T06:15:26;99655.25;;;39.04;7.51
2563;BME280;1291;51.420;6.970;2023-02-22T06:17:52;99650.81;;;39.30;7.58
2563;BME280;1291;51.420;6.970;2023-02-22T06:20:23;99662.75;;;39.38;7.45
2563;BME280;1291;51.420;6.970;2023-02-22T06:22:49;99667.41;;;39.27;7.62
2563;BME280;1291;51.420;6.970;2023-02-22T06:25:21;99656.03;;;38.86;7.74
2563;BME280;1291;51.420;6.970;2023-02-22T06:27:48;99654.63;;;38.54;8.03
2563;BME280;1291;51.420;6.970;2023-02-22T06:30:15;99656.28;;;37.89;8.27
2563;BME280;1291;51.420;6.970;2023-02-22T06:32:40;99654.72;;;38.15;8.24
2563;BME280;1291;51.420;6.970;2023-02-22T06:35:06;99658.09;;;38.27;7.91
2563;BME280;1291;51.420;6.970;2023-02-22T06:37:31;99664.00;;;38.03;8.06
2563;BME280;1291;51.420;6.970;2023-02-22T06:39:57;99656.84;;;38.69;7.62
2563;BME280;1291;51.420;6.970;2023-02-22T06:42:22;99653.56;;;37.89;8.05
2563;BME280;1291;51.420;6.970;2023-02-22T06:44:48;99658.19;;;38.83;7.53
2563;BME280;1291;51.420;6.970;2023-02-22T06:47:13;99652.69;;;38.27;7.91
2563;BME280;1291;51.420;6.970;2023-02-22T06:49:38;99652.13;;;37.46;8.48
2563;BME280;1291;51.420;6.970;2023-02-22T06:52:05;99655.47;;;38.45;8.01
2563;BME280;1291;51.420;6.970;2023-02-22T06:54:31;99646.66;;;38.81;7.31
2563;BME280;1291;51.420;6.970;2023-02-22T06:56:56;99651.09;;;38.82;7.42
2563;BME280;1291;51.420;6.970;2023-02-22T06:59:21;99654.94;;;39.07;7.21
2563;BME280;1291;51.420;6.970;2023-02-22T07:01:50;99654.63;;;38.82;8.03
2563;BME280;1291;51.420;6.970;2023-02-22T07:04:16;99641.91;;;38.55;7.59
2563;BME280;1291;51.420;6.970;2023-02-22T07:06:48;99652.16;;;37.94;8.24
2563;BME280;1291;51.420;6.970;2023-02-22T07:09:15;99651.84;;;38.74;7.72
2563;BME280;1291;51.420;6.970;2023-02-22T07:11:41;99649.59;;;38.60;7.83
2563;BME280;1291;51.420;6.970;2023-02-22T07:14:07;99652.88;;;38.63;8.06
2563;BME280;1291;51.420;6.970;2023-02-22T07:16:32;99648.00;;;38.67;7.72
2563;BME280;1291;51.420;6.970;2023-02-22T07:18:58;99637.25;;;38.28;7.88
2563;BME280;1291;51.420;6.970;2023-02-22T07:21:25;99656.13;;;38.20;8.17
2563;BME280;1291;51.420;6.970;2023-02-22T07:23:52;99651.00;;;38.16;7.88
2563;BME280;1291;51.420;6.970;2023-02-22T07:26:18;99649.25;;;38.72;7.73
2563;BME280;1291;51.420;6.970;2023-02-22T07:28:44;99650.47;;;37.84;8.44
2563;BME280;1291;51.420;6.970;2023-02-22T07:31:09;99646.34;;;38.46;7.96
2563;BME280;1291;51.420;6.970;2023-02-22T07:33:34;99649.97;;;38.74;7.94
2563;BME280;1291;51.420;6.970;2023-02-22T07:36:00;99642.47;;;38.49;8.21
2563;BME280;1291;51.420;6.970;2023-02-22T07:38:25;99645.31;;;37.81;8.56
2563;BME280;1291;51.420;6.970;2023-02-22T07:40:50;99648.47;;;37.66;8.67
2563;BME280;1291;51.420;6.970;2023-02-22T07:43:19;99647.69;;;36.75;9.24
2563;BME280;1291;51.420;6.970;2023-02-22T07:45:46;99638.34;;;36.98;9.07
2563;BME280;1291;51.420;6.970;2023-02-22T07:48:12;99640.28;;;36.77;9.31
2563;BME280;1291;51.420;6.970;2023-02-22T07:50:39;99639.78;;;37.03;9.02
2563;BME280;1291;51.420;6.970;2023-02-22T07:53:07;99638.03;;;37.91;8.51
2563;BME280;1291;51.420;6.970;2023-02-22T07:55:35;99632.06;;;37.38;9.01
2563;BME280;1291;51.420;6.970;2023-02-22T07:58:03;99631.59;;;37.14;9.21
2563;BME280;1291;51.420;6.970;2023-02-22T08:00:35;99636.94;;;37.64;8.75
2563;BME280;1291;51.420;6.970;2023-02-22T08:03:03;99633.72;;;39.38;7.75
2563;BME280;1291;51.420;6.970;2023-02-22T08:05:30;99625.47;;;40.02;7.48
2563;BME280;1291;51.420;6.970;2023-02-22T08:07:55;99628.50;;;39.99;7.28
2563;BME280;1291;51.420;6.970;2023-02-22T08:10:22;99624.25;;;40.48;7.70
2563;BME280;1291;51.420;6.970;2023-02-22T08:12:49;99619.44;;;39.90;7.70
2563;BME280;1291;51.420;6.970;2023-02-22T08:15:18;99623.56;;;38.94;8.18
2563;BME280;1291;51.420;6.970;2023-02-22T08:17:43;99623.16;;;40.07;7.57
2563;BME280;1291;51.420;6.970;2023-02-22T08:20:09;99620.31;;;40.43;7.46
2563;BME280;1291;51.420;6.970;2023-02-22T08:22:34;99619.50;;;40.50;7.67
2563;BME280;1291;51.420;6.970;2023-02-22T08:24:59;99621.06;;;38.83;8.64
2563;BME280;1291;51.420;6.970;2023-02-22T08:27:26;99618.44;;;39.01;8.44
2563;BME280;1291;51.420;6.970;2023-02-22T08:29:52;99624.09;;;39.08;8.42
2563;BME280;1291;51.420;6.970;2023-02-22T08:32:18;99612.44;;;40.31;7.55
2563;BME280;1291;51.420;6.970;2023-02-22T08:34:43;99614.72;;;40.44;7.86
2563;BME280;1291;51.420;6.970;2023-02-22T08:37:09;99612.63;;;40.38;7.70
2563;BME280;1291;51.420;6.970;2023-02-22T08:39:34;99616.75;;;40.85;7.72
2563;BME280;1291;51.420;6.970;2023-02-22T08:42:00;99616.31;;;39.85;8.07
2563;BME280;1291;51.420;6.970;2023-02-22T08:44:25;99614.13;;;38.33;9.39
2563;BME280;1291;51.420;6.970;2023-02-22T08:46:50;99617.22;;;38.48;9.00
2563;BME280;1291;51.420;6.970;2023-02-22T08:49:16;99610.06;;;39.30;8.72
2563;BME280;1291;51.420;6.970;2023-02-22T08:51:41;99606.53;;;37.90;9.41
2563;BME280;1291;51.420;6.970;2023-02-22T08:54:07;99597.25;;;40.29;8.13
2563;BME280;1291;51.420;6.970;2023-02-22T08:56:32;99606.88;;;38.99;8.69
2563;BME280;1291;51.420;6.970;2023-02-22T08:58:58;99595.47;;;40.11;8.02
2563;BME280;1291;51.420;6.970;2023-02-22T09:01:24;99597.22;;;40.21;7.95
2563;BME280;1291;51.420;6.970;2023-02-22T09:03:50;99602.56;;;38.69;9.45
2563;BME280;1291;51.420;6.970;2023-02-22T09:06:17;99601.50;;;39.79;8.75
2563;BME280;1291;51.420;6.970;2023-02-22T09:08:42;99600.59;;;39.70;8.60
2563;BME280;1291;51.420;6.970;2023-02-22T09:11:08;99604.63;;;41.22;8.08
2563;BME280;1291;51.420;6.970;2023-02-22T09:13:33;99603.13;;;41.77;7.77
2563;BME280;1291;51.420;6.970;2023-02-22T09:15:58;99602.09;;;41.69;7.58
2563;BME280;1291;51.420;6.970;2023-02-22T09:18:26;99596.13;;;41.91;7.40
2563;BME280;1291;51.420;6.970;2023-02-22T09:20:52;99607.53;;;42.19;7.42
2563;BME280;1291;51.420;6.970;2023-02-22T09:23:17;99601.31;;;42.41;7.33
2563;BME280;1291;51.420;6.970;2023-02-22T09:25:48;99593.88;;;40.69;8.45
2563;BME280;1291;51.420;6.970;2023-02-22T09:28:14;99598.66;;;41.18;8.22
2563;BME280;1291;51.420;6.970;2023-02-22T09:30:39;99599.22;;;40.79;8.21
2563;BME280;1291;51.420;6.970;2023-02-22T09:33:08;99601.28;;;42.58;7.38
2563;BME280;1291;51.420;6.970;2023-02-22T09:35:34;99591.72;;;42.62;7.41
2563;BME280;1291;51.420;6.970;2023-02-22T09:38:00;99592.69;;;42.69;7.35
2563;BME280;1291;51.420;6.970;2023-02-22T09:40:29;99587.84;;;42.79;7.31
2563;BME280;1291;51.420;6.970;2023-02-22T09:45:50;99587.44;;;43.22;7.12
2563;BME280;1291;51.420;6.970;2023-02-22T09:48:18;99592.22;;;43.20;7.26
2563;BME280;1291;51.420;6.970;2023-02-22T09:50:45;99597.38;;;42.92;7.37
2563;BME280;1291;51.420;6.970;2023-02-22T09:53:25;99600.91;;;43.23;6.97
2563;BME280;1291;51.420;6.970;2023-02-22T09:56:16;99593.78;;;42.60;6.99
2563;BME280;1291;51.420;6.970;2023-02-22T09:58:45;99589.94;;;43.93;6.56
2563;BME280;1291;51.420;6.970;2023-02-22T10:01:30;99594.94;;;41.44;7.84
2563;BME280;1291;51.420;6.970;2023-02-22T10:09:44;99590.44;;;43.58;6.06
2563;BME280;1291;51.420;6.970;2023-02-22T10:12:22;99592.56;;;41.57;7.69
2563;BME280;1291;51.420;6.970;2023-02-22T10:17:53;99581.25;;;43.05;6.49
2563;BME280;1291;51.420;6.970;2023-02-22T10:26:03;99578.75;;;43.64;6.26
2563;BME280;1291;51.420;6.970;2023-02-22T10:28:39;99586.09;;;42.95;6.57
2563;BME280;1291;51.420;6.970;2023-02-22T10:31:08;99580.19;;;43.37;6.53
2563;BME280;1291;51.420;6.970;2023-02-22T10:33:56;99579.78;;;43.63;6.26
2563;BME280;1291;51.420;6.970;2023-02-22T10:36:23;99578.94;;;43.63;6.48
2563;BME280;1291;51.420;6.970;2023-02-22T10:38:57;99579.69;;;44.69;5.71
2563;BME280;1291;51.420;6.970;2023-02-22T10:41:32;99569.50;;;42.65;6.85
2563;BME280;1291;51.420;6.970;2023-02-22T10:44:00;99565.09;;;43.64;6.37
2563;BME280;1291;51.420;6.970;2023-02-22T10:46:27;99567.38;;;42.83;6.22
2563;BME280;1291;51.420;6.970;2023-02-22T10:48:56;99562.00;;;43.68;6.26
2563;BME280;1291;51.420;6.970;2023-02-22T10:51:27;99561.59;;;44.53;5.63
2563;BME280;1291;51.420;6.970;2023-02-22T10:54:06;99554.81;;;44.86;5.65
2563;BME280;1291;51.420;6.970;2023-02-22T10:57:05;99552.72;;;44.36;5.97
2563;BME280;1291;51.420;6.970;2023-02-22T10:59:32;99551.22;;;44.49;6.02
2563;BME280;1291;51.420;6.970;2023-02-22T11:02:00;99548.94;;;42.77;6.64
2563;BME280;1291;51.420;6.970;2023-02-22T11:04:26;99543.75;;;44.94;5.98
2563;BME280;1291;51.420;6.970;2023-02-22T11:09:24;99542.38;;;43.18;6.69
2563;BME280;1291;51.420;6.970;2023-02-22T11:12:07;99536.25;;;44.66;5.50
2563;BME280;1291;51.420;6.970;2023-02-22T11:14:33;99536.19;;;44.30;5.64
2563;BME280;1291;51.420;6.970;2023-02-22T11:16:59;99533.44;;;44.59;6.02
2563;BME280;1291;51.420;6.970;2023-02-22T11:19:30;99529.34;;;44.70;5.15
2563;BME280;1291;51.420;6.970;2023-02-22T11:22:08;99533.44;;;43.70;5.90
2563;BME280;1291;51.420;6.970;2023-02-22T11:24:43;99531.19;;;43.74;5.56
2563;BME280;1291;51.420;6.970;2023-02-22T11:27:40;99522.16;;;44.03;5.59
2563;BME280;1291;51.420;6.970;2023-02-22T11:32:48;99521.84;;;45.15;4.79
2563;BME280;1291;51.420;6.970;2023-02-22T11:37:52;99520.63;;;45.68;5.24
2563;BME280;1291;51.420;6.970;2023-02-22T11:40:21;99509.81;;;45.16;5.43
2563;BME280;1291;51.420;6.970;2023-02-22T11:43:17;99518.09;;;45.45;5.06
2563;BME280;1291;51.420;6.970;2023-02-22T11:46:13;99514.06;;;44.10;5.67
2563;BME280;1291;51.420;6.970;2023-02-22T11:48:45;99512.16;;;45.19;5.14
2563;BME280;1291;51.420;6.970;2023-02-22T11:51:24;99509.81;;;44.95;5.25
2563;BME280;1291;51.420;6.970;2023-02-22T12:03:14;99497.94;;;44.66;5.15
2563;BME280;1291;51.420;6.970;2023-02-22T12:14:57;99493.88;;;44.62;5.19
2563;BME280;1291;51.420;6.970;2023-02-22T12:20:19;99489.91;;;44.13;5.58
2563;BME280;1291;51.420;6.970;2023-02-22T12:25:34;99489.41;;;43.95;5.29
2563;BME280;1291;51.420;6.970;2023-02-22T12:28:17;99491.25;;;43.64;5.76
2563;BME280;1291;51.420;6.970;2023-02-22T12:30:46;99487.38;;;45.06;5.11
2563;BME280;1291;51.420;6.970;2023-02-22T12:33:20;99476.72;;;43.49;5.70
2563;BME280;1291;51.420;6.970;2023-02-22T12:35:51;99483.28;;;46.50;4.77
2563;BME280;1291;51.420;6.970;2023-02-22T12:38:23;99475.41;;;44.49;5.51
2563;BME280;1291;51.420;6.970;2023-02-22T12:43:34;99490.72;;;44.29;5.61
2563;BME280;1291;51.420;6.970;2023-02-22T12:46:19;99489.91;;;45.57;4.64
2563;BME280;1291;51.420;6.970;2023-02-22T12:54:17;99490.06;;;46.54;4.29
2563;BME280;1291;51.420;6.970;2023-02-22T12:57:35;99485.03;;;44.60;5.41
2563;BME280;1291;51.420;6.970;2023-02-22T13:00:10;99487.09;;;42.30;6.28
2563;BME280;1291;51.420;6.970;2023-02-22T13:02:44;99482.50;;;43.54;5.35
2563;BME280;1291;51.420;6.970;2023-02-22T13:05:17;99485.72;;;44.02;4.94
2563;BME280;1291;51.420;6.970;2023-02-22T13:08:04;99484.72;;;45.97;4.28
2563;BME280;1291;51.420;6.970;2023-02-22T13:13:38;99480.31;;;46.51;4.11
2563;BME280;1291;51.420;6.970;2023-02-22T13:17:26;99487.84;;;44.88;4.53
2563;BME280;1291;51.420;6.970;2023-02-22T13:19:40;99480.69;;;45.93;4.45
2563;BME280;1291;51.420;6.970;2023-02-22T13:22:14;99477.44;;;46.80;4.25
2563;BME280;1291;51.420;6.970;2023-02-22T13:24:51;99478.56;;;47.39;4.08
2563;BME280;1291;51.420;6.970;2023-02-22T13:27:26;99479.00;;;44.71;5.40
2563;BME280;1291;51.420;6.970;2023-02-22T13:29:58;99472.75;;;46.05;4.44
2563;BME280;1291;51.420;6.970;2023-02-22T13:35:19;99473.47;;;43.69;4.90
2563;BME280;1291;51.420;6.970;2023-02-22T13:41:04;99482.97;;;46.25;4.24
2563;BME280;1291;51.420;6.970;2023-02-22T13:52:16;99470.56;;;46.42;4.13
2563;BME280;1291;51.420;6.970;2023-02-22T13:55:02;99471.56;;;43.69;5.23
2563;BME280;1291;51.420;6.970;2023-02-22T13:57:44;99477.16;;;44.93;4.54
2563;BME280;1291;51.420;6.970;2023-02-22T14:03:06;99465.75;;;44.53;5.26
2563;BME280;1291;51.420;6.970;2023-02-22T14:11:03;99471.63;;;45.65;4.76
2563;BME280;1291;51.420;6.970;2023-02-22T14:16:30;99470.81;;;46.47;4.17
2563;BME280;1291;51.420;6.970;2023-02-22T14:22:11;99473.19;;;46.09;4.05
2563;BME280;1291;51.420;6.970;2023-02-22T14:24:45;99473.59;;;46.12;4.29
2563;BME280;1291;51.420;6.970;2023-02-22T14:27:15;99471.97;;;46.93;3.82
2563;BME280;1291;51.420;6.970;2023-02-22T14:29:56;99473.53;;;44.71;5.04
2563;BME280;1291;51.420;6.970;2023-02-22T14:32:32;99472.34;;;45.24;4.65
2563;BME280;1291;51.420;6.970;2023-02-22T14:34:59;99471.78;;;43.97;4.92
2563;BME280;1291;51.420;6.970;2023-02-22T14:37:32;99476.91;;;43.48;5.37
2563;BME280;1291;51.420;6.970;2023-02-22T14:40:18;99473.84;;;45.26;4.67
2563;BME280;1291;51.420;6.970;2023-02-22T14:42:48;99472.56;;;45.78;4.58
2563;BME280;1291;51.420;6.970;2023-02-22T14:50:51;99470.50;;;46.90;4.11
2563;BME280;1291;51.420;6.970;2023-02-22T14:56:04;99465.53;;;46.46;4.48
2563;BME280;1291;51.420;6.970;2023-02-22T14:58:42;99471.56;;;46.96;4.44
2563;BME280;1291;51.420;6.970;2023-02-22T15:01:23;99466.34;;;44.49;5.31
2563;BME280;1291;51.420;6.970;2023-02-22T15:03:49;99463.22;;;46.43;4.76
2563;BME280;1291;51.420;6.970;2023-02-22T15:06:20;99473.13;;;45.67;4.85
2563;BME280;1291;51.420;6.970;2023-02-22T15:08:47;99462.25;;;44.81;4.75
2563;BME280;1291;51.420;6.970;2023-02-22T15:11:27;99472.91;;;44.91;5.19
2563;BME280;1291;51.420;6.970;2023-02-22T15:14:14;99468.53;;;46.71;4.58
2563;BME280;1291;51.420;6.970;2023-02-22T15:16:46;99472.81;;;46.87;4.52
2563;BME280;1291;51.420;6.970;2023-02-22T15:19:14;99469.50;;;44.16;5.87
2563;BME280;1291;51.420;6.970;2023-02-22T15:21:49;99473.34;;;45.37;5.36
2563;BME280;1291;51.420;6.970;2023-02-22T15:24:25;99482.88;;;45.70;4.94
2563;BME280;1291;51.420;6.970;2023-02-22T15:26:51;99472.97;;;46.52;4.66
2563;BME280;1291;51.420;6.970;2023-02-22T15:29:23;99475.06;;;46.56;4.48
2563;BME280;1291;51.420;6.970;2023-02-22T15:31:50;99480.03;;;47.01;4.91
2563;BME280;1291;51.420;6.970;2023-02-22T15:34:19;99479.56;;;46.78;4.69
2563;BME280;1291;51.420;6.970;2023-02-22T15:36:50;99484.41;;;45.51;5.38
2563;BME280;1291;51.420;6.970;2023-02-22T15:39:26;99484.50;;;46.41;5.14
2563;BME280;1291;51.420;6.970;2023-02-22T15:42:20;99482.22;;;46.51;4.70
2563;BME280;1291;51.420;6.970;2023-02-22T15:44:49;99482.03;;;46.59;4.80
2563;BME280;1291;51.420;6.970;2023-02-22T15:47:24;99484.03;;;45.89;5.14
2563;BME280;1291;51.420;6.970;2023-02-22T15:50:15;99483.63;;;45.64;5.35
2563;BME280;1291;51.420;6.970;2023-02-22T15:55:37;99482.88;;;46.53;4.88
2563;BME280;1291;51.420;6.970;2023-02-22T15:58:08;99487.91;;;46.43;5.04
2563;BME280;1291;51.420;6.970;2023-02-22T16:00:36;99492.59;;;45.72;5.59
2563;BME280;1291;51.420;6.970;2023-02-22T16:03:12;99493.91;;;45.27;5.43